Palo Alto, Pennsylvania
Current Conditions -  °F | °C
As of 9:58 PM on Saturday 25 Oct 2014 (Local Time) from KMUI Reporting Station
Few Clouds Few Clouds  
Wind Chill: 58°   Ceiling: Unl
Heat Index: 58°   Visibility: 10mi
Dew Point: 49°   Wind: 2mph
Humidity: 70%   Direction: 270°W
Pressure: 29.65"   Gusts: NA
Location:  40.6882°N, 76.264°W
Report Text: KMUI 260158Z AUTO 27002KT 10SM FEW060 15/09 A2965 RMK AO2 SLP042 T01460092 $
Loading
Personal Weather Stations






























Interactive Weather Map
Tropical Storm Tracking
New forecast layout! Learn more

10-Day Weather Forecast

Advertisements
Track Severe Weather on mobile